Time;durP1;ratioP1;P1;durP2;ratioP2;P2;SDS_P1;SDS_P2;PMS_P1;PMS_P2;Temp;Humidity;BMP_temperature;BMP_pressure;BME280_temperature;BME280_humidity;BME280_pressure;Samples;Min_cycle;Max_cycle;Signal;HPM_P1;HPM_P2
2023/06/14 00:01:23;;;;;;;5.25;3.78;;;17.70;37.20;;;19.90;30.75;97144.09;5086247;28;20051;-57
2023/06/14 00:03:51;;;;;;;5.68;3.95;;;17.70;37.50;;;19.84;30.75;97143.97;5085905;28;20051;-58
2023/06/14 00:06:18;;;;;;;5.10;4.00;;;17.60;37.30;;;19.80;30.80;97141.97;5055180;28;20408;-58
2023/06/14 00:08:46;;;;;;;4.47;4.07;;;17.60;37.50;;;19.75;30.84;97139.94;5082774;28;20051;-57
2023/06/14 00:11:14;;;;;;;6.75;4.20;;;17.50;37.50;;;19.67;31.20;97145.66;5085816;28;20044;-57
2023/06/14 00:13:43;;;;;;;6.20;4.20;;;17.40;38.00;;;19.63;31.37;97145.28;5085828;28;20122;-56
2023/06/14 00:16:10;;;;;;;4.97;3.63;;;17.40;38.20;;;19.59;31.29;97140.59;5053456;28;20045;-56
2023/06/14 00:18:38;;;;;;;4.75;4.25;;;17.40;38.10;;;19.56;31.47;97147.28;5073927;28;20500;-57
2023/06/14 00:21:06;;;;;;;10.95;4.63;;;17.40;37.90;;;19.58;31.52;97144.34;5073746;28;20045;-58
2023/06/14 00:23:33;;;;;;;4.78;3.92;;;17.50;38.10;;;19.57;31.64;97140.00;5073983;28;20487;-57
2023/06/14 00:26:01;;;;;;;5.38;4.05;;;17.50;38.20;;;19.58;31.53;97145.19;5072995;28;20059;-57
2023/06/14 00:28:28;;;;;;;4.20;3.80;;;17.50;38.20;;;19.56;31.74;97141.91;5073520;28;20048;-57
2023/06/14 00:30:56;;;;;;;5.78;3.92;;;17.60;37.90;;;19.57;31.74;97145.41;5055341;28;20052;-57
2023/06/14 00:33:24;;;;;;;6.25;4.40;;;17.60;37.90;;;19.57;31.77;97143.53;5055198;28;20053;-59
2023/06/14 00:35:53;;;;;;;5.10;4.20;;;17.70;37.90;;;19.59;31.76;97146.81;5063373;28;20060;-59
2023/06/14 00:38:21;;;;;;;10.15;4.63;;;17.70;37.70;;;19.60;31.80;97147.63;5048158;28;20047;-57
2023/06/14 00:40:49;;;;;;;11.30;4.93;;;17.70;37.90;;;19.60;31.97;97142.22;5073650;28;20045;-57
2023/06/14 00:43:16;;;;;;;4.95;4.45;;;17.70;38.80;;;19.59;31.99;97146.81;5058203;28;20051;-59
2023/06/14 00:45:44;;;;;;;7.05;4.60;;;17.70;38.20;;;19.58;32.01;97139.78;5066666;28;20052;-58
2023/06/14 00:48:14;;;;;;;5.00;4.28;;;17.70;38.50;;;19.57;32.13;97145.41;5081641;28;20507;-58
2023/06/14 00:50:48;;;;;;;5.47;4.50;;;17.60;38.40;;;19.55;32.08;97147.53;5055554;28;20048;-57
2023/06/14 00:53:25;;;;;;;5.70;4.68;;;17.60;38.50;;;19.52;32.45;97139.88;5084999;28;20055;-57
2023/06/14 00:55:52;;;;;;;7.40;4.32;;;17.50;38.90;;;19.50;32.40;97141.97;5035761;28;20523;-58
2023/06/14 00:58:22;;;;;;;6.50;5.18;;;17.50;39.10;;;19.44;32.75;97141.88;5046992;28;20542;-58
2023/06/14 01:00:51;;;;;;;7.00;4.25;;;17.40;39.60;;;19.43;32.73;97148.31;5038746;28;20048;-58
2023/06/14 01:03:21;;;;;;;6.38;4.18;;;17.40;39.40;;;19.41;32.79;97144.19;5055657;28;20520;-58
2023/06/14 01:06:06;;;;;;;5.75;4.60;;;17.40;39.60;;;19.37;32.89;97141.13;5081609;28;20044;-58
2023/06/14 01:08:55;;;;;;;5.10;4.43;;;17.40;40.50;;;19.32;32.91;97138.28;5019253;28;20056;-58
2023/06/14 01:11:54;;;;;;;4.75;4.10;;;17.30;41.20;;;19.31;33.39;97135.81;5029079;28;20424;-57
2023/06/14 01:14:24;;;;;;;6.25;5.15;;;17.30;40.80;;;19.30;33.17;97142.28;5030838;28;20522;-57
2023/06/14 01:16:55;;;;;;;6.00;4.78;;;17.30;40.50;;;19.26;33.33;97142.72;5054250;28;20056;-59
2023/06/14 01:19:25;;;;;;;5.20;4.70;;;17.20;40.50;;;19.21;33.31;97145.31;5034280;28;20063;-57
2023/06/14 01:21:55;;;;;;;5.68;4.65;;;17.10;40.70;;;19.18;33.42;97144.94;5084141;28;20044;-56
2023/06/14 01:24:25;;;;;;;6.90;4.63;;;17.10;40.80;;;19.14;33.61;97147.25;5034695;28;20052;-57
2023/06/14 01:26:55;;;;;;;6.90;4.70;;;17.00;40.90;;;19.10;33.78;97145.25;5076774;28;20048;-57
2023/06/14 01:29:27;;;;;;;6.25;4.85;;;17.00;41.40;;;19.06;33.97;97147.56;5068528;28;20039;-57
2023/06/14 01:31:55;;;;;;;6.00;4.43;;;16.90;42.10;;;18.99;33.97;97146.84;5085564;28;20048;-57
2023/06/14 01:34:23;;;;;;;4.80;3.63;;;16.90;41.70;;;18.97;34.25;97151.63;5058539;28;20040;-57
2023/06/14 01:36:54;;;;;;;8.25;4.40;;;16.90;41.80;;;18.92;34.25;97148.78;5084477;28;20039;-57
2023/06/14 01:39:23;;;;;;;6.80;4.80;;;16.80;41.90;;;18.88;34.32;97148.41;5030036;28;20144;-57
2023/06/14 01:41:51;;;;;;;8.60;4.72;;;16.80;42.30;;;18.87;34.42;97149.47;5053858;28;20052;-57
2023/06/14 01:44:20;;;;;;;7.88;5.18;;;16.80;42.50;;;18.78;34.73;97154.31;5040590;28;20056;-57
2023/06/14 01:46:48;;;;;;;6.20;4.78;;;16.70;42.80;;;18.71;34.77;97150.88;5059695;28;20072;-56
2023/06/14 01:49:16;;;;;;;6.28;4.95;;;16.60;43.30;;;18.64;35.15;97152.81;5037359;28;20055;-57
2023/06/14 01:51:44;;;;;;;9.65;4.85;;;16.40;43.80;;;18.55;35.30;97152.28;5072044;28;20058;-56
2023/06/14 01:54:11;;;;;;;6.95;4.93;;;16.30;44.10;;;18.51;35.45;97151.06;5053515;28;20055;-57
2023/06/14 01:56:39;;;;;;;9.30;5.15;;;16.30;44.20;;;18.45;35.20;97155.50;5053179;28;20408;-58
2023/06/14 01:59:07;;;;;;;6.03;5.43;;;16.20;44.10;;;18.41;35.52;97151.59;5054577;28;20530;-57
2023/06/14 02:01:34;;;;;;;6.68;4.45;;;16.20;44.40;;;18.37;35.71;97157.66;5083213;28;20040;-57
2023/06/14 02:04:02;;;;;;;5.90;4.50;;;16.20;44.60;;;18.34;35.70;97158.09;5083663;28;20039;-57
2023/06/14 02:06:30;;;;;;;5.45;4.45;;;16.20;44.40;;;18.32;35.84;97154.81;5079947;28;20053;-58
2023/06/14 02:08:57;;;;;;;7.22;5.05;;;16.20;44.50;;;18.32;35.93;97162.88;5054081;28;20056;-57
2023/06/14 02:11:28;;;;;;;5.70;4.53;;;16.20;44.70;;;18.28;35.94;97157.97;5063706;28;20045;-57
2023/06/14 02:13:56;;;;;;;8.15;4.80;;;16.10;45.10;;;18.26;35.80;97159.22;5053451;28;20045;-58
2023/06/14 02:16:24;;;;;;;7.72;4.80;;;16.10;44.70;;;18.25;36.01;97160.28;5053102;28;20044;-57
2023/06/14 02:18:52;;;;;;;7.43;4.75;;;16.10;44.70;;;18.25;35.95;97152.19;5053932;28;20392;-59
2023/06/14 02:21:20;;;;;;;5.15;3.88;;;16.20;44.70;;;18.21;36.06;97161.75;5052153;28;20044;-57
2023/06/14 02:23:48;;;;;;;8.10;5.05;;;16.10;45.00;;;18.19;36.05;97155.78;5053799;28;20067;-58
2023/06/14 02:26:15;;;;;;;5.28;4.78;;;16.10;44.70;;;18.18;36.29;97160.31;5054783;28;20052;-57
2023/06/14 02:28:43;;;;;;;8.70;6.10;;;16.10;45.20;;;18.19;36.30;97161.97;5064784;28;20063;-58
2023/06/14 02:31:10;;;;;;;7.65;4.60;;;16.20;45.00;;;18.18;36.34;97157.63;5056350;28;20044;-58
2023/06/14 02:33:39;;;;;;;8.18;4.95;;;16.10;45.20;;;18.17;36.50;97158.69;5083146;28;20051;-55
2023/06/14 02:36:06;;;;;;;5.65;4.40;;;16.10;45.40;;;18.14;36.42;97161.81;5056044;28;20047;-57
2023/06/14 02:38:35;;;;;;;4.90;4.35;;;16.10;45.50;;;18.09;36.59;97151.72;5082872;28;20043;-56
2023/06/14 02:41:02;;;;;;;5.72;4.18;;;16.00;45.60;;;18.07;36.62;97156.50;5083148;28;20063;-57
2023/06/14 02:43:30;;;;;;;9.40;4.20;;;16.00;45.40;;;18.07;36.67;97152.97;5067109;28;20036;-57
2023/06/14 02:45:58;;;;;;;6.38;4.75;;;16.00;45.50;;;18.03;36.70;97155.28;5080854;28;20043;-57
2023/06/14 02:48:27;;;;;;;7.90;5.10;;;15.90;45.90;;;18.00;36.70;97153.03;5055882;28;20044;-57
2023/06/14 02:50:56;;;;;;;5.80;5.15;;;15.90;45.60;;;17.99;36.92;97148.69;5082706;28;20491;-58
2023/06/14 02:53:23;;;;;;;5.10;4.60;;;15.90;46.00;;;17.96;36.94;97161.78;5080837;28;20479;-57
2023/06/14 02:55:51;;;;;;;5.25;4.75;;;15.80;46.20;;;17.90;36.98;97155.41;5052570;28;20040;-56
2023/06/14 02:58:19;;;;;;;5.68;5.05;;;15.80;46.30;;;17.86;37.01;97156.88;5037751;28;20044;-57
2023/06/14 03:00:47;;;;;;;5.97;5.20;;;15.70;46.60;;;17.83;37.01;97162.66;5059355;28;20071;-57
2023/06/14 03:03:16;;;;;;;8.32;5.25;;;15.70;46.40;;;17.80;36.93;97161.25;5053552;28;20067;-58
2023/06/14 03:05:51;;;;;;;8.02;5.60;;;15.80;46.20;;;17.77;37.23;97155.47;5058288;28;20060;-58
2023/06/14 03:08:27;;;;;;;;;;;15.70;46.80;;;17.71;36.94;97154.47;5055887;28;20188;-58
2023/06/14 03:10:56;;;;;;;10.40;5.07;;;15.60;48.20;;;17.66;37.11;97157.84;5048790;28;19920;-58
2023/06/14 03:13:24;;;;;;;6.43;5.00;;;15.40;47.00;;;17.58;37.27;97158.06;5045552;28;20235;-57
2023/06/14 03:15:52;;;;;;;8.27;4.35;;;15.40;47.00;;;17.56;37.36;97164.72;5052118;28;20055;-57
2023/06/14 03:18:22;;;;;;;8.27;5.45;;;15.40;47.40;;;17.52;37.37;97162.47;5051545;28;20503;-56
2023/06/14 03:20:53;;;;;;;7.80;5.15;;;15.40;47.20;;;17.53;37.61;97160.59;5058123;28;20055;-58
2023/06/14 03:23:22;;;;;;;7.07;4.72;;;15.50;47.10;;;17.53;37.64;97163.31;5052675;28;20044;-58
2023/06/14 03:25:50;;;;;;;5.50;4.55;;;15.40;47.20;;;17.54;37.60;97164.94;5052147;28;20044;-57
2023/06/14 03:28:18;;;;;;;6.57;5.22;;;15.50;47.10;;;17.54;37.88;97162.25;5070271;28;20052;-58
2023/06/14 03:30:45;;;;;;;8.02;5.40;;;15.50;47.20;;;17.55;37.65;97168.47;5052648;28;20059;-57
2023/06/14 03:33:15;;;;;;;7.40;4.80;;;15.60;47.10;;;17.55;37.74;97169.28;5079200;28;20239;-58
2023/06/14 03:35:43;;;;;;;5.85;4.80;;;15.60;46.90;;;17.52;37.74;97170.56;5059635;28;20056;-58
2023/06/14 03:38:12;;;;;;;5.55;4.47;;;15.50;47.30;;;17.52;37.79;97175.94;5051552;28;20048;-57
2023/06/14 03:40:40;;;;;;;5.68;4.50;;;15.60;47.00;;;17.53;37.97;97182.13;5051835;28;20060;-56
2023/06/14 03:43:08;;;;;;;6.72;5.05;;;15.50;47.40;;;17.52;37.90;97183.16;5052322;28;20048;-58
2023/06/14 03:45:35;;;;;;;5.65;4.63;;;15.50;47.20;;;17.52;37.82;97185.84;5052272;28;20041;-57
2023/06/14 03:48:06;;;;;;;8.10;5.82;;;15.50;47.20;;;17.52;37.72;97183.16;5051980;28;20044;-57
2023/06/14 03:50:37;;;;;;;6.88;5.32;;;15.50;47.00;;;17.51;37.79;97189.59;5052283;28;20045;-57
2023/06/14 03:53:06;;;;;;;6.53;4.75;;;15.50;46.80;;;17.52;37.88;97193.94;5078180;28;20055;-58
2023/06/14 03:55:37;;;;;;;6.80;5.00;;;15.60;46.80;;;17.52;37.82;97196.63;5052172;28;20051;-57
2023/06/14 03:58:27;;;;;;;6.28;4.50;;;15.50;46.80;;;17.56;37.83;97202.41;5062072;28;20045;-57
2023/06/14 04:00:56;;;;;;;8.05;4.47;;;15.60;47.00;;;17.54;37.96;97207.19;5057715;28;20065;-57
2023/06/14 04:03:29;;;;;;;6.15;4.63;;;15.50;47.20;;;17.54;37.93;97202.59;5060405;28;20086;-56
2023/06/14 04:05:59;;;;;;;7.43;4.95;;;15.60;46.90;;;17.52;37.85;97208.22;5052209;28;20041;-57
2023/06/14 04:08:27;;;;;;;7.75;4.65;;;15.60;47.00;;;17.54;37.89;97210.69;5053379;28;20053;-57
2023/06/14 04:10:55;;;;;;;5.85;4.45;;;15.60;47.10;;;17.56;38.23;97213.16;5063397;28;20213;-58
2023/06/14 04:13:22;;;;;;;6.75;5.20;;;15.60;47.10;;;17.57;38.02;97212.13;5052501;28;20501;-57
2023/06/14 04:15:51;;;;;;;9.52;5.43;;;15.70;46.90;;;17.60;38.13;97209.84;5052357;28;20052;-57
2023/06/14 04:18:25;;;;;;;6.72;4.72;;;15.80;47.20;;;17.63;38.19;97217.47;5051930;28;20056;-56
2023/06/14 04:20:53;;;;;;;6.93;4.07;;;15.80;46.90;;;17.64;38.38;97216.44;5052063;28;20048;-58
2023/06/14 04:23:21;;;;;;;7.88;4.55;;;15.80;47.60;;;17.65;38.48;97222.66;5052308;28;20051;-57
2023/06/14 04:25:49;;;;;;;8.15;4.85;;;15.70;47.60;;;17.66;38.35;97221.59;5035327;28;20538;-58
2023/06/14 04:28:18;;;;;;;8.13;5.00;;;15.80;47.60;;;17.68;38.39;97232.97;5035551;28;20097;-57
2023/06/14 04:30:47;;;;;;;5.65;4.60;;;15.80;47.40;;;17.70;38.31;97223.66;5059282;28;20531;-58
2023/06/14 04:33:17;;;;;;;7.55;4.47;;;15.90;47.10;;;17.74;38.22;97226.72;5051662;28;20048;-57
2023/06/14 04:35:48;;;;;;;7.95;5.00;;;15.90;46.60;;;17.78;38.34;97230.63;5059290;28;20056;-58
2023/06/14 04:38:18;;;;;;;7.40;5.00;;;16.00;46.40;;;17.82;38.21;97228.34;5052022;28;20424;-58
2023/06/14 04:40:46;;;;;;;6.53;4.38;;;16.10;46.50;;;17.86;38.15;97233.09;5039952;28;20505;-57
2023/06/14 04:43:24;;;;;;;6.53;5.10;;;16.10;46.20;;;17.90;38.23;97228.91;5047940;28;20389;-57
2023/06/14 04:45:54;;;;;;;5.95;4.38;;;16.20;46.20;;;17.93;38.18;97238.41;5053838;28;20072;-59
2023/06/14 04:48:22;;;;;;;6.07;5.10;;;16.20;46.20;;;17.96;38.01;97232.59;5038863;28;20044;-58
2023/06/14 04:50:53;;;;;;;9.43;6.05;;;16.20;46.00;;;17.98;37.94;97240.47;5078115;28;20040;-57
2023/06/14 04:53:22;;;;;;;6.95;5.35;;;16.20;45.90;;;18.00;38.14;97244.59;5084083;28;20052;-58
2023/06/14 04:55:53;;;;;;;8.25;5.10;;;16.30;46.80;;;18.04;37.69;97243.09;5054954;28;20052;-58
2023/06/14 04:58:21;;;;;;;6.38;5.45;;;16.30;45.70;;;18.07;37.82;97249.94;5054754;28;20045;-59
2023/06/14 05:00:49;;;;;;;6.60;4.60;;;16.40;45.70;;;18.08;37.83;97254.28;5055534;28;20044;-58
2023/06/14 05:03:18;;;;;;;5.90;5.30;;;16.40;45.70;;;18.10;37.69;97250.31;5073511;28;20076;-58
2023/06/14 05:05:48;;;;;;;7.95;5.18;;;16.40;45.50;;;18.10;38.00;97260.25;5047434;28;20048;-57
2023/06/14 05:08:16;;;;;;;9.07;5.38;;;16.50;45.60;;;18.11;37.97;97256.53;5073136;28;20419;-58
2023/06/14 05:10:45;;;;;;;6.20;5.00;;;16.50;45.80;;;18.10;38.21;97257.56;5046739;28;20041;-58
2023/06/14 05:13:13;;;;;;;5.97;5.38;;;16.60;46.00;;;18.08;38.10;97257.78;5080993;28;20044;-57
2023/06/14 05:15:40;;;;;;;6.63;5.45;;;16.60;45.60;;;18.13;38.26;97262.53;5058149;28;20044;-57
2023/06/14 05:18:09;;;;;;;9.57;6.10;;;16.70;45.70;;;18.19;38.40;97258.16;5084802;28;20036;-56
2023/06/14 05:20:37;;;;;;;8.82;5.60;;;16.70;46.30;;;18.24;38.35;97264.53;5082030;28;20040;-55
2023/06/14 05:23:05;;;;;;;9.30;5.43;;;16.70;46.40;;;18.30;38.32;97266.34;5080359;28;20051;-53
2023/06/14 05:25:32;;;;;;;8.55;5.70;;;16.70;46.50;;;18.35;38.46;97270.25;5083044;28;20040;-54
2023/06/14 05:28:00;;;;;;;7.90;5.85;;;16.70;46.50;;;18.38;38.33;97269.78;5084413;28;20036;-53
2023/06/14 05:30:30;;;;;;;6.43;5.38;;;16.80;46.50;;;18.40;38.70;97273.13;5083263;28;20491;-55
2023/06/14 05:32:57;;;;;;;7.82;5.43;;;16.80;46.80;;;18.44;38.75;97269.75;5055223;28;20048;-53
2023/06/14 05:35:26;;;;;;;9.98;6.03;;;16.80;46.80;;;18.50;38.65;97273.44;5055781;28;20048;-54
2023/06/14 05:37:54;;;;;;;14.40;5.78;;;16.80;46.70;;;18.53;38.76;97282.94;5084232;28;20047;-55
2023/06/14 05:40:21;;;;;;;8.10;5.80;;;16.90;46.90;;;18.55;38.77;97280.84;5076473;28;20416;-54
2023/06/14 05:42:49;;;;;;;6.82;5.70;;;16.90;47.00;;;18.58;38.59;97283.94;5083534;28;20040;-55
2023/06/14 05:45:17;;;;;;;7.75;5.22;;;17.00;47.20;;;18.59;38.80;97282.91;5083675;28;20063;-51
2023/06/14 05:47:45;;;;;;;11.20;6.05;;;17.00;47.20;;;18.62;38.80;97289.69;5080485;28;20048;-55
2023/06/14 05:50:12;;;;;;;9.15;5.32;;;17.00;47.30;;;18.65;39.06;97284.69;5054347;28;20077;-58
2023/06/14 05:52:40;;;;;;;9.15;5.75;;;17.00;47.50;;;18.68;38.93;97288.81;5083226;28;20139;-52
2023/06/14 05:55:08;;;;;;;6.22;5.55;;;17.10;47.30;;;18.63;39.07;97285.94;5084450;28;20043;-52
2023/06/14 05:57:36;;;;;;;8.82;6.18;;;17.10;47.00;;;18.63;39.13;97292.19;5081287;28;20040;-57
2023/06/14 06:00:10;;;;;;;6.63;5.80;;;17.10;47.00;;;18.66;39.14;97293.59;5080754;28;20055;-55
2023/06/14 06:02:38;;;;;;;7.95;5.55;;;17.20;46.80;;;18.69;38.91;97295.88;5083101;28;20063;-55
2023/06/14 06:05:06;;;;;;;5.82;5.20;;;17.30;46.80;;;18.66;39.17;97294.41;5084231;28;20059;-55
2023/06/14 06:07:34;;;;;;;8.25;5.82;;;17.30;47.00;;;18.64;39.03;97296.50;5081293;28;20054;-56
2023/06/14 06:10:05;;;;;;;6.55;5.82;;;17.20;46.90;;;18.63;39.13;97297.56;5080599;28;20037;-54
2023/06/14 06:12:33;;;;;;;7.93;6.43;;;17.10;47.20;;;18.64;39.09;97299.22;5081595;28;20040;-58
2023/06/14 06:15:00;;;;;;;6.80;5.22;;;17.10;47.60;;;18.67;39.12;97295.28;5060979;28;20044;-58
2023/06/14 06:17:28;;;;;;;8.63;5.88;;;17.20;47.20;;;18.68;39.31;97300.41;5076916;28;20535;-59
2023/06/14 06:20:09;;;;;;;6.32;5.28;;;17.20;47.40;;;18.70;39.12;97300.19;5083592;28;20036;-56
2023/06/14 06:22:38;;;;;;;5.68;5.07;;;17.10;47.40;;;18.67;38.93;97303.34;5057592;28;20276;-58
2023/06/14 06:25:06;;;;;;;6.45;5.03;;;17.10;47.00;;;18.69;39.12;97304.78;5084114;28;20040;-52
2023/06/14 06:27:35;;;;;;;13.20;6.22;;;17.20;47.00;;;18.73;38.96;97309.72;5082097;28;20044;-56
2023/06/14 06:30:04;;;;;;;8.57;6.85;;;17.20;46.90;;;18.69;38.80;97307.47;5053864;28;20052;-58
2023/06/14 06:32:31;;;;;;;5.68;4.93;;;17.20;46.40;;;18.72;38.75;97308.06;5080706;28;20036;-56
2023/06/14 06:35:00;;;;;;;11.52;5.97;;;17.30;46.40;;;18.71;38.82;97312.66;5060754;28;20419;-57
2023/06/14 06:37:27;;;;;;;8.75;5.88;;;17.20;46.40;;;18.74;38.99;97303.28;5079422;28;20047;-57
2023/06/14 06:39:55;;;;;;;9.15;5.10;;;17.20;46.60;;;18.83;38.90;97308.19;5053943;28;20056;-57
2023/06/14 06:42:22;;;;;;;6.95;5.53;;;17.40;46.50;;;18.95;38.59;97316.38;5079565;28;20041;-57
2023/06/14 06:44:51;;;;;;;7.78;6.03;;;17.60;46.00;;;19.01;39.16;97312.78;5045206;28;20045;-59
2023/06/14 06:47:19;;;;;;;8.55;5.53;;;17.60;47.10;;;19.04;38.97;97316.94;5070881;28;20349;-58
2023/06/14 06:49:47;;;;;;;6.10;5.47;;;17.60;46.70;;;19.07;38.75;97314.59;5071470;28;20492;-57
2023/06/14 06:52:15;;;;;;;6.13;5.13;;;17.60;46.20;;;19.15;38.63;97318.88;5080221;28;20052;-55
2023/06/14 06:54:42;;;;;;;9.40;5.75;;;17.80;45.80;;;19.21;38.71;97322.53;5081966;28;20044;-55
2023/06/14 06:57:10;;;;;;;7.70;5.28;;;17.90;45.80;;;19.24;38.79;97322.09;5083088;28;20055;-51
2023/06/14 06:59:38;;;;;;;7.07;5.57;;;17.90;46.80;;;19.25;38.59;97321.88;5056831;28;20056;-54
2023/06/14 07:02:06;;;;;;;8.43;5.53;;;17.90;46.00;;;19.34;38.74;97332.38;5083146;28;20047;-54
2023/06/14 07:04:34;;;;;;;7.85;6.25;;;18.00;45.90;;;19.43;38.08;97333.72;5082295;28;20364;-55
2023/06/14 07:07:02;;;;;;;6.65;5.00;;;18.20;44.70;;;19.49;37.94;97335.53;5078775;28;20041;-54
2023/06/14 07:09:29;;;;;;;6.03;4.88;;;18.20;44.50;;;19.50;37.78;97339.03;5079118;28;20044;-54
2023/06/14 07:11:57;;;;;;;6.22;4.90;;;18.20;44.40;;;19.55;37.41;97342.72;5083167;28;20083;-55
2023/06/14 07:14:25;;;;;;;7.00;5.75;;;18.20;43.90;;;19.60;37.58;97342.03;5082955;28;20499;-54
2023/06/14 07:16:52;;;;;;;6.60;5.90;;;18.30;44.00;;;19.63;37.48;97344.28;5079017;28;20040;-55
2023/06/14 07:19:20;;;;;;;5.40;4.80;;;18.40;43.90;;;19.65;37.61;97342.19;5079109;28;20041;-56
2023/06/14 07:21:48;;;;;;;6.30;5.40;;;18.40;43.90;;;19.72;37.30;97352.94;5080882;28;20040;-56
2023/06/14 07:24:16;;;;;;;7.72;5.72;;;18.50;43.60;;;19.80;37.16;97344.53;5058508;28;20043;-54
2023/06/14 07:26:43;;;;;;;7.38;5.13;;;18.60;43.50;;;19.85;37.31;97348.22;5078516;28;20055;-54
2023/06/14 07:29:11;;;;;;;6.32;5.00;;;18.60;43.60;;;19.91;37.51;97343.78;5079474;28;20048;-56
2023/06/14 07:31:38;;;;;;;5.60;4.88;;;18.80;43.60;;;19.98;37.44;97349.88;5080135;28;20246;-52
2023/06/14 07:34:06;;;;;;;9.02;5.45;;;18.80;43.60;;;20.03;37.45;97352.75;5081204;28;20423;-60
2023/06/14 07:36:34;;;;;;;7.65;6.18;;;18.90;43.80;;;20.08;37.40;97356.63;5081719;28;20044;-58
2023/06/14 07:39:03;;;;;;;8.02;5.80;;;18.90;43.70;;;20.12;37.48;97360.53;5079145;28;20056;-58
2023/06/14 07:41:31;;;;;;;6.97;5.30;;;18.90;43.80;;;20.16;37.26;97365.25;5079215;28;20045;-58
2023/06/14 07:43:58;;;;;;;6.40;5.50;;;19.00;43.10;;;20.19;37.29;97363.97;5066258;28;20040;-57
2023/06/14 07:46:26;;;;;;;7.07;5.47;;;18.90;43.90;;;20.21;37.61;97362.66;5082112;28;20036;-57
2023/06/14 07:48:53;;;;;;;8.57;5.45;;;19.00;44.10;;;20.27;37.46;97364.44;5078816;28;20056;-54
2023/06/14 07:51:22;;;;;;;8.65;5.80;;;19.10;44.10;;;20.35;37.28;97357.06;5079107;28;20048;-56
2023/06/14 07:53:50;;;;;;;6.72;6.05;;;19.20;43.30;;;20.36;37.71;97364.16;5081165;28;20037;-56
2023/06/14 07:56:17;;;;;;;7.15;5.53;;;19.10;44.20;;;20.33;37.89;97359.19;5082325;28;20047;-55
2023/06/14 07:58:45;;;;;;;7.70;5.63;;;19.10;44.80;;;20.38;37.86;97357.44;5080671;28;20048;-58
2023/06/14 08:01:13;;;;;;;6.72;5.65;;;19.20;44.30;;;20.44;37.86;97361.09;5078775;28;20036;-57
2023/06/14 08:03:40;;;;;;;6.72;5.88;;;19.20;44.50;;;20.50;37.76;97362.06;5079576;28;20067;-53
2023/06/14 08:06:08;;;;;;;6.25;5.40;;;19.30;44.40;;;20.58;37.45;97367.13;5081996;28;20434;-56
2023/06/14 08:08:36;;;;;;;6.70;5.55;;;19.40;43.60;;;20.59;37.28;97356.13;5081943;28;20048;-57
2023/06/14 08:11:04;;;;;;;5.55;5.05;;;19.40;43.30;;;20.60;37.17;97360.44;5045586;28;20056;-57
2023/06/14 08:13:31;;;;;;;5.82;5.22;;;19.40;43.60;;;20.64;36.99;97360.81;5061824;28;20402;-56
2023/06/14 08:16:01;;;;;;;5.55;4.97;;;19.50;43.20;;;20.68;36.73;97361.19;5064875;28;20044;-55
2023/06/14 08:18:30;;;;;;;7.47;5.93;;;19.50;43.00;;;20.74;36.90;97366.47;5056972;28;20044;-57
2023/06/14 08:20:57;;;;;;;11.75;5.20;;;19.60;42.80;;;20.70;36.69;97372.59;5055697;28;20040;-54
2023/06/14 08:23:25;;;;;;;7.05;5.20;;;19.50;42.60;;;20.67;36.54;97364.94;5059987;28;20045;-57
2023/06/14 08:25:53;;;;;;;5.95;5.35;;;19.40;42.90;;;20.72;36.83;97365.88;5058125;28;20415;-57
2023/06/14 08:28:21;;;;;;;8.93;6.25;;;19.50;43.30;;;20.80;36.85;97365.56;5064667;28;20280;-56
2023/06/14 08:30:48;;;;;;;9.25;5.50;;;19.60;42.90;;;20.85;37.10;97371.06;5041822;28;20884;-56
2023/06/14 08:33:16;;;;;;;6.03;4.93;;;19.70;43.20;;;20.93;37.20;97371.78;5061085;28;20040;-57
2023/06/14 08:35:44;;;;;;;6.70;5.28;;;19.80;43.40;;;21.00;36.76;97370.63;5060174;28;20040;-56
2023/06/14 08:38:12;;;;;;;8.43;5.95;;;19.90;43.50;;;21.07;36.53;97372.38;5056629;28;20636;-57
2023/06/14 08:40:41;;;;;;;5.80;5.20;;;20.00;42.50;;;21.03;36.23;97374.72;5027536;28;20048;-55
2023/06/14 08:43:09;;;;;;;7.35;5.03;;;19.90;42.00;;;21.11;36.46;97381.69;5025171;28;20044;-56
2023/06/14 08:45:37;;;;;;;7.22;5.20;;;20.00;42.20;;;21.12;36.44;97377.91;5049615;28;20036;-57
2023/06/14 08:48:07;;;;;;;7.28;5.43;;;20.00;41.80;;;21.17;36.53;97378.88;5060906;28;20046;-56
2023/06/14 08:50:39;;;;;;;7.63;4.68;;;20.10;42.20;;;21.26;36.52;97383.91;5062755;28;20049;-56
2023/06/14 08:53:11;;;;;;;6.88;4.80;;;20.10;42.10;;;21.29;36.15;97386.16;5041441;28;20504;-56
2023/06/14 08:55:39;;;;;;;9.50;5.10;;;20.20;42.00;;;21.36;35.84;97381.44;5034195;28;20113;-56
2023/06/14 08:58:14;;;;;;;5.65;4.72;;;20.30;41.50;;;21.42;36.08;97370.50;5053274;28;20411;-60
2023/06/14 09:00:42;;;;;;;6.60;5.45;;;20.40;41.90;;;21.54;36.46;97384.03;5053125;28;20416;-57
2023/06/14 09:03:14;;;;;;;6.35;5.00;;;20.50;41.80;;;21.54;35.77;97373.22;5060914;28;20044;-59
2023/06/14 09:05:42;;;;;;;8.32;5.47;;;20.50;41.00;;;21.60;35.68;97387.69;5053069;28;20052;-60
2023/06/14 09:08:10;;;;;;;7.70;5.15;;;20.50;41.30;;;21.68;36.06;97375.66;5042531;28;20519;-60
2023/06/14 09:10:40;;;;;;;5.68;4.93;;;20.60;41.40;;;21.74;35.99;97375.53;5060547;28;20056;-61
2023/06/14 09:13:08;;;;;;;7.20;5.05;;;20.70;41.80;;;21.78;35.81;97371.25;5047515;28;20055;-61
2023/06/14 09:15:36;;;;;;;8.25;5.60;;;20.70;41.60;;;21.87;35.68;97379.00;5056967;28;20045;-60
2023/06/14 09:18:03;;;;;;;7.07;5.18;;;20.80;41.40;;;21.94;35.72;97383.22;5049467;28;20045;-58
2023/06/14 09:20:32;;;;;;;5.80;5.20;;;20.90;40.90;;;21.96;35.12;97383.81;5052106;28;20045;-57
2023/06/14 09:23:01;;;;;;;7.80;4.95;;;20.90;40.40;;;22.01;35.13;97375.78;5034368;28;20492;-58
2023/06/14 09:25:29;;;;;;;5.85;5.20;;;20.90;40.60;;;22.10;35.19;97373.53;5049557;28;20041;-56
2023/06/14 09:27:59;;;;;;;6.35;4.93;;;21.00;40.30;;;22.15;35.01;97376.31;5053407;28;20052;-56
2023/06/14 09:30:28;;;;;;;7.35;5.60;;;21.00;40.50;;;22.21;34.93;97383.47;5051959;28;20489;-54
2023/06/14 09:32:56;;;;;;;8.60;5.38;;;21.10;40.00;;;22.27;34.62;97379.00;5052607;28;20051;-57
2023/06/14 09:35:29;;;;;;;6.18;4.88;;;21.20;39.70;;;22.33;34.67;97374.50;5032986;28;20051;-56
2023/06/14 09:37:57;;;;;;;6.68;5.00;;;21.20;39.40;;;22.39;34.57;97385.22;5053003;28;20049;-61
2023/06/14 09:40:25;;;;;;;5.20;4.57;;;21.30;39.20;;;22.46;33.84;97386.97;5052447;28;20033;-59
2023/06/14 09:42:53;;;;;;;7.43;4.25;;;21.40;38.90;;;22.49;34.09;97394.59;5070368;28;20044;-60
2023/06/14 09:45:22;;;;;;;5.57;4.82;;;21.40;38.90;;;22.53;33.77;97390.34;5054807;28;20040;-62
2023/06/14 09:47:51;;;;;;;7.03;5.10;;;21.50;38.80;;;22.49;33.63;97386.44;5071965;28;20500;-62
2023/06/14 09:50:32;;;;;;;5.32;4.45;;;21.40;37.90;;;22.54;33.72;97390.06;5080645;28;20491;-58
2023/06/14 09:53:08;;;;;;;6.40;4.32;;;21.50;38.20;;;22.61;32.96;97384.50;5056918;28;20044;-57
2023/06/14 09:55:37;;;;;;;10.40;4.70;;;21.60;36.50;;;22.67;32.32;97388.97;5058468;28;20052;-57
2023/06/14 09:58:08;;;;;;;8.32;5.18;;;21.70;36.80;;;22.78;32.55;97381.81;5082999;28;20044;-60
2023/06/14 10:00:38;;;;;;;5.05;4.53;;;21.70;37.00;;;22.85;32.65;97387.06;5059403;28;20063;-61
2023/06/14 10:03:17;;;;;;;6.35;4.60;;;21.80;36.80;;;22.91;31.70;97376.03;5083185;28;20048;-59
2023/06/14 10:05:47;;;;;;;7.60;4.50;;;21.80;34.60;;;22.98;32.01;97378.59;5058113;28;20047;-61
2023/06/14 10:08:19;;;;;;;6.43;4.35;;;21.90;36.10;;;23.08;31.78;97381.50;5045722;28;20405;-57
2023/06/14 10:10:47;;;;;;;5.47;4.20;;;22.10;36.00;;;23.18;31.63;97381.66;5053731;28;20055;-58
2023/06/14 10:13:16;;;;;;;6.60;4.35;;;22.20;35.60;;;23.24;31.18;97371.69;5030157;28;20415;-57
2023/06/14 10:16:10;;;;;;;5.90;4.53;;;22.20;35.20;;;23.25;31.27;97380.69;5054354;28;20067;-59
2023/06/14 10:19:17;;;;;;;;;;;22.30;34.30;;;23.27;31.23;97382.06;5050486;28;20052;-59
2023/06/14 10:22:10;;;;;;;4.55;3.97;;;22.20;33.40;;;23.28;30.11;97375.53;5067681;28;20395;-57
2023/06/14 10:24:44;;;;;;;6.30;4.10;;;22.20;32.20;;;23.26;29.26;97380.41;5048320;28;20071;-58
2023/06/14 10:27:18;;;;;;;6.38;4.93;;;22.20;32.00;;;23.28;29.73;97383.69;5079469;28;20039;-57
2023/06/14 10:29:57;;;;;;;7.75;4.80;;;22.20;32.90;;;23.32;29.83;97378.59;5080124;28;20048;-58